createdAt,value
2018-08-17T00:01:45.588Z,20.36
2018-08-17T00:03:50.506Z,20.30
2018-08-17T00:05:55.409Z,20.33
2018-08-17T00:08:00.426Z,20.29
2018-08-17T00:10:05.340Z,20.25
2018-08-17T00:12:10.249Z,20.23
2018-08-17T00:14:15.117Z,20.24
2018-08-17T00:16:19.917Z,20.21
2018-08-17T00:18:24.722Z,20.14
2018-08-17T00:20:29.681Z,20.15
2018-08-17T00:22:34.543Z,20.09
2018-08-17T00:24:39.412Z,20.07
2018-08-17T00:26:45.078Z,20.02
2018-08-17T00:28:49.852Z,20.00
2018-08-17T00:30:54.717Z,19.94
2018-08-17T00:32:59.631Z,19.94
2018-08-17T00:35:04.516Z,19.96
2018-08-17T00:37:09.414Z,19.96
2018-08-17T00:39:14.344Z,19.97
2018-08-17T00:41:19.618Z,19.95
2018-08-17T00:43:24.402Z,19.90
2018-08-17T00:45:29.341Z,19.90
2018-08-17T00:47:34.240Z,19.90
2018-08-17T00:49:39.196Z,19.85
2018-08-17T00:51:44.014Z,19.94
2018-08-17T00:53:48.798Z,19.93
2018-08-17T00:55:53.658Z,19.98
2018-08-17T00:57:58.719Z,20.04
2018-08-17T01:00:03.580Z,20.00
2018-08-17T01:02:10.893Z,20.02
2018-08-17T01:04:15.794Z,20.16
2018-08-17T01:06:20.590Z,20.12
2018-08-17T01:08:25.506Z,19.98
2018-08-17T01:10:30.263Z,20.06
2018-08-17T01:12:35.077Z,20.10
2018-08-17T01:14:39.864Z,20.15
2018-08-17T01:16:44.900Z,20.13
2018-08-17T01:18:49.718Z,20.08
2018-08-17T01:20:54.507Z,20.27
2018-08-17T01:22:59.760Z,20.50
2018-08-17T01:25:05.393Z,20.78
2018-08-17T01:27:10.598Z,20.48
2018-08-17T01:29:15.402Z,20.39
2018-08-17T01:31:20.334Z,20.49
2018-08-17T01:33:25.122Z,20.52
2018-08-17T01:35:29.961Z,20.44
2018-08-17T01:37:34.819Z,20.43
2018-08-17T01:39:40.091Z,20.42
2018-08-17T01:41:45.053Z,20.12
2018-08-17T01:43:49.892Z,20.10
2018-08-17T01:45:54.844Z,20.27
2018-08-17T01:48:00.021Z,20.17
2018-08-17T01:50:05.492Z,20.17
2018-08-17T01:52:10.329Z,19.92
2018-08-17T01:54:15.336Z,19.79
2018-08-17T01:56:20.147Z,19.56
2018-08-17T01:58:24.925Z,19.80
2018-08-17T02:00:29.793Z,19.70
2018-08-17T02:02:34.645Z,19.53
2018-08-17T02:04:39.417Z,19.55
2018-08-17T02:06:44.343Z,19.45
2018-08-17T02:08:49.200Z,19.64
2018-08-17T02:10:54.027Z,19.49
2018-08-17T02:12:59.058Z,19.42
2018-08-17T02:15:03.911Z,19.28
2018-08-17T02:17:09.014Z,19.25
2018-08-17T02:19:13.981Z,19.06
2018-08-17T02:21:18.841Z,19.06
2018-08-17T02:23:23.601Z,19.18
2018-08-17T02:25:28.391Z,19.14
2018-08-17T02:27:33.314Z,19.12
2018-08-17T02:29:38.119Z,19.31
2018-08-17T02:31:42.978Z,19.09
2018-08-17T02:33:47.797Z,19.01
2018-08-17T02:35:52.632Z,18.83
2018-08-17T02:37:57.613Z,19.01
2018-08-17T02:40:02.487Z,19.07
2018-08-17T02:42:07.791Z,18.86
2018-08-17T02:44:12.672Z,18.91
2018-08-17T02:46:17.631Z,18.90
2018-08-17T02:48:22.424Z,18.82
2018-08-17T02:50:27.248Z,18.79
2018-08-17T02:52:32.016Z,19.07
2018-08-17T02:54:36.781Z,18.88
2018-08-17T02:56:41.929Z,18.88
2018-08-17T02:58:46.648Z,18.81
2018-08-17T03:00:57.066Z,19.00
2018-08-17T03:03:01.980Z,18.94
2018-08-17T03:05:07.013Z,18.97
2018-08-17T03:07:11.744Z,18.90
2018-08-17T03:09:16.832Z,18.91
2018-08-17T03:11:21.809Z,18.93
2018-08-17T03:13:26.619Z,18.92
2018-08-17T03:15:31.487Z,18.86
2018-08-17T03:17:36.277Z,18.81
2018-08-17T03:19:41.045Z,18.80
2018-08-17T03:21:46.204Z,18.88
2018-08-17T03:23:50.964Z,18.84
2018-08-17T03:25:55.724Z,18.99
2018-08-17T03:28:00.630Z,18.91
2018-08-17T03:30:05.976Z,18.88
2018-08-17T03:32:10.869Z,18.85
2018-08-17T03:34:15.991Z,18.93
2018-08-17T03:36:20.806Z,18.79
2018-08-17T03:38:25.637Z,18.84
2018-08-17T03:40:30.499Z,18.87
2018-08-17T03:42:35.300Z,18.58
2018-08-17T03:44:40.075Z,18.62
2018-08-17T03:46:45.858Z,18.57
2018-08-17T03:48:50.787Z,18.48
2018-08-17T03:50:55.663Z,18.53
2018-08-17T03:53:00.595Z,18.50
2018-08-17T03:55:05.597Z,18.52
2018-08-17T03:57:10.378Z,18.67
2018-08-17T03:59:15.306Z,18.52
2018-08-17T04:01:20.462Z,18.36
2018-08-17T04:03:25.289Z,18.39
2018-08-17T04:05:30.120Z,18.41
2018-08-17T04:07:34.905Z,18.29
2018-08-17T04:09:39.713Z,18.34
2018-08-17T04:11:44.511Z,18.30
2018-08-17T04:13:49.428Z,18.38
2018-08-17T04:15:54.805Z,18.39
2018-08-17T04:17:59.814Z,18.61
2018-08-17T04:20:05.065Z,18.74
2018-08-17T04:22:10.013Z,18.74
2018-08-17T04:24:14.877Z,18.66
2018-08-17T04:26:19.835Z,18.81
2018-08-17T04:28:25.051Z,18.93
2018-08-17T04:30:30.252Z,18.73
2018-08-17T04:32:35.256Z,18.92
2018-08-17T04:34:40.090Z,18.81
2018-08-17T04:36:45.026Z,18.89
2018-08-17T04:38:50.426Z,18.95
2018-08-17T04:40:55.334Z,19.26
2018-08-17T04:43:06.690Z,19.14
2018-08-17T04:45:11.676Z,19.50
2018-08-17T04:47:16.422Z,19.36
2018-08-17T04:49:21.428Z,19.27
2018-08-17T04:51:26.268Z,19.39
2018-08-17T04:53:31.245Z,19.06
2018-08-17T04:55:36.150Z,19.11
2018-08-17T04:57:41.177Z,18.85
2018-08-17T04:59:46.019Z,18.91
2018-08-17T05:01:50.857Z,18.70
2018-08-17T05:03:55.760Z,18.51
2018-08-17T05:06:00.759Z,18.40
2018-08-17T05:08:05.613Z,18.43
2018-08-17T05:10:10.626Z,18.38
2018-08-17T05:12:18.380Z,18.22
2018-08-17T05:14:23.264Z,17.96
2018-08-17T05:16:29.238Z,17.83
2018-08-17T05:18:34.277Z,17.72
2018-08-17T05:20:39.172Z,17.64
2018-08-17T05:22:44.826Z,17.65
2018-08-17T05:24:49.681Z,17.61
2018-08-17T05:26:54.658Z,17.55
2018-08-17T05:28:59.527Z,17.46
2018-08-17T05:31:13.724Z,17.54
2018-08-17T05:33:22.165Z,17.47
2018-08-17T05:35:27.065Z,17.39
2018-08-17T05:37:31.898Z,17.34
2018-08-17T05:39:36.777Z,17.56
2018-08-17T05:41:41.603Z,17.59
2018-08-17T05:43:46.485Z,17.53
2018-08-17T05:45:51.300Z,17.57
2018-08-17T05:47:56.337Z,17.49
2018-08-17T05:50:01.173Z,17.38
2018-08-17T05:52:06.261Z,17.32
2018-08-17T05:54:11.072Z,17.52
2018-08-17T05:56:16.239Z,17.27
2018-08-17T05:58:21.088Z,17.39
2018-08-17T06:00:26.457Z,17.36
2018-08-17T06:02:31.518Z,17.40
2018-08-17T06:04:36.413Z,17.43
2018-08-17T06:06:41.498Z,17.39
2018-08-17T06:08:46.435Z,17.35
2018-08-17T06:10:51.404Z,17.43
2018-08-17T06:12:56.221Z,17.49
2018-08-17T06:15:01.084Z,17.47
2018-08-17T06:17:06.132Z,17.51
2018-08-17T06:19:12.221Z,17.45
2018-08-17T06:21:17.659Z,17.46
2018-08-17T06:23:22.646Z,17.39
2018-08-17T06:25:28.392Z,17.36
2018-08-17T06:27:33.536Z,17.37
2018-08-17T06:29:38.723Z,17.35
2018-08-17T06:31:45.176Z,17.39
2018-08-17T06:33:50.145Z,17.38
2018-08-17T06:35:55.465Z,17.32
2018-08-17T06:38:00.712Z,17.31
2018-08-17T06:40:06.161Z,17.37
2018-08-17T06:42:11.515Z,17.35
2018-08-17T06:44:16.876Z,17.31
2018-08-17T06:46:22.177Z,17.41
2018-08-17T06:48:27.692Z,17.48
2018-08-17T06:50:33.350Z,17.46
2018-08-17T06:52:39.106Z,17.48
2018-08-17T06:54:44.322Z,17.54
2018-08-17T06:56:49.674Z,17.60
2018-08-17T06:58:54.624Z,17.57
2018-08-17T07:01:00.588Z,17.62
2018-08-17T07:03:13.928Z,17.64
2018-08-17T07:05:19.292Z,17.65
2018-08-17T07:07:24.863Z,17.73
2018-08-17T07:09:30.372Z,17.72
2018-08-17T07:11:35.225Z,17.84
2018-08-17T07:13:41.752Z,17.94
2018-08-17T07:15:47.459Z,18.11
2018-08-17T07:17:53.376Z,18.15
2018-08-17T07:19:58.380Z,18.27
2018-08-17T07:22:03.614Z,18.33
2018-08-17T07:24:08.852Z,18.50
2018-08-17T07:26:14.556Z,18.52
2018-08-17T07:28:19.795Z,18.64
2018-08-17T07:30:25.052Z,18.69
2018-08-17T07:32:30.433Z,18.67
2018-08-17T07:34:36.426Z,18.63
2018-08-17T07:36:42.061Z,18.67
2018-08-17T07:38:49.150Z,18.66
2018-08-17T07:40:54.075Z,18.62
2018-08-17T07:42:59.269Z,18.62
2018-08-17T07:45:22.179Z,18.62
2018-08-17T07:47:27.249Z,18.71
2018-08-17T07:49:32.198Z,18.80
2018-08-17T07:51:37.139Z,18.88
2018-08-17T07:53:41.961Z,19.07
2018-08-17T07:55:46.971Z,19.50
2018-08-17T07:57:51.951Z,19.77
2018-08-17T07:59:57.544Z,19.68
2018-08-17T08:02:03.066Z,19.79
2018-08-17T08:04:09.088Z,19.56
2018-08-17T08:06:14.952Z,19.52
2018-08-17T08:08:20.020Z,19.63
2018-08-17T08:10:25.228Z,19.50
2018-08-17T08:12:30.260Z,19.25
2018-08-17T08:14:34.977Z,19.32
2018-08-17T08:16:40.211Z,19.24
2018-08-17T08:18:45.437Z,19.37
2018-08-17T08:20:50.399Z,19.47
2018-08-17T08:23:33.745Z,19.60
2018-08-17T08:25:38.903Z,19.52
2018-08-17T08:29:42.281Z,19.36
2018-08-17T08:31:47.183Z,19.58
2018-08-17T08:33:52.476Z,19.35
2018-08-17T08:35:57.413Z,19.33
2018-08-17T08:38:02.265Z,19.36
2018-08-17T08:40:07.515Z,19.32
2018-08-17T08:42:12.611Z,19.23
2018-08-17T08:44:17.463Z,19.26
2018-08-17T08:46:22.313Z,19.30
2018-08-17T08:48:27.278Z,19.20
2018-08-17T08:50:32.199Z,19.15
2018-08-17T08:52:36.982Z,19.10
2018-08-17T08:54:42.069Z,19.21
2018-08-17T08:56:46.881Z,19.14
2018-08-17T08:58:51.791Z,19.17
2018-08-17T09:00:56.968Z,18.99
2018-08-17T09:03:01.997Z,18.93
2018-08-17T09:05:07.067Z,18.79
2018-08-17T09:07:11.915Z,18.82
2018-08-17T09:09:16.848Z,18.70
2018-08-17T09:11:21.757Z,18.61
2018-08-17T09:13:26.682Z,18.53
2018-08-17T09:15:31.659Z,18.44
2018-08-17T09:17:36.872Z,18.63
2018-08-17T09:19:41.884Z,18.77
2018-08-17T09:21:46.823Z,18.77
2018-08-17T09:23:51.752Z,18.78
2018-08-17T09:25:56.646Z,18.75
2018-08-17T09:28:01.441Z,18.88
2018-08-17T09:30:10.103Z,18.84
2018-08-17T09:32:15.081Z,19.00
2018-08-17T09:34:19.917Z,18.87
2018-08-17T09:36:25.343Z,18.87
2018-08-17T09:40:42.354Z,18.88
2018-08-17T09:42:47.339Z,18.88
2018-08-17T09:44:52.327Z,18.97
2018-08-17T09:46:58.884Z,19.10
2018-08-17T09:49:03.859Z,19.03
2018-08-17T09:51:08.680Z,18.96
2018-08-17T09:53:16.353Z,19.03
2018-08-17T09:55:21.140Z,19.15
2018-08-17T09:57:25.919Z,18.98
2018-08-17T09:59:30.871Z,18.93
2018-08-17T10:01:40.987Z,18.81
2018-08-17T10:03:49.906Z,18.92
2018-08-17T10:06:00.515Z,19.29
2018-08-17T10:08:10.570Z,19.45
2018-08-17T10:10:19.794Z,19.34
2018-08-17T10:12:24.727Z,19.76
2018-08-17T10:14:29.644Z,19.87
2018-08-17T10:16:34.476Z,20.11
2018-08-17T10:18:44.932Z,20.56
2018-08-17T10:20:50.110Z,20.68
2018-08-17T10:22:55.683Z,20.81
2018-08-17T10:25:08.770Z,20.41
2018-08-17T10:27:13.654Z,20.14
2018-08-17T10:29:19.435Z,20.48
2018-08-17T10:31:24.301Z,20.16
2018-08-17T10:33:29.208Z,20.24
2018-08-17T10:35:35.043Z,20.52
2018-08-17T10:37:39.886Z,20.75
2018-08-17T10:39:55.775Z,20.76
2018-08-17T10:42:00.729Z,21.30
2018-08-17T10:44:06.264Z,21.23
2018-08-17T10:46:11.773Z,21.11
2018-08-17T10:48:17.500Z,20.82
2018-08-17T10:50:25.265Z,20.57
2018-08-17T10:52:30.258Z,20.56
2018-08-17T10:54:35.326Z,20.44
2018-08-17T10:56:40.305Z,20.59
2018-08-17T10:58:45.172Z,20.49
2018-08-17T11:00:50.051Z,20.16
2018-08-17T11:02:55.231Z,20.66
2018-08-17T11:05:00.054Z,20.68
2018-08-17T11:07:04.845Z,20.28
2018-08-17T11:09:11.185Z,19.93
2018-08-17T11:11:15.977Z,20.10
2018-08-17T11:13:20.965Z,20.38
2018-08-17T11:15:25.959Z,20.10
2018-08-17T11:17:30.840Z,20.25
2018-08-17T11:19:35.722Z,20.14
2018-08-17T11:21:40.899Z,20.13
2018-08-17T11:23:45.803Z,20.32
2018-08-17T11:25:50.624Z,20.44
2018-08-17T11:27:55.572Z,20.38
2018-08-17T11:30:00.476Z,20.41
2018-08-17T11:32:05.396Z,20.42
2018-08-17T11:34:10.438Z,20.46
2018-08-17T11:36:15.371Z,20.71
2018-08-17T11:38:20.585Z,20.25
2018-08-17T11:40:25.403Z,20.30
2018-08-17T11:42:40.825Z,20.44
2018-08-17T11:44:45.793Z,20.31
2018-08-17T11:46:51.030Z,20.30
2018-08-17T11:48:55.805Z,20.59
2018-08-17T11:51:00.633Z,20.82
2018-08-17T11:53:05.889Z,20.73
2018-08-17T11:55:10.650Z,20.88
2018-08-17T11:57:15.503Z,20.77
2018-08-17T11:59:20.400Z,20.82
2018-08-17T12:01:27.324Z,21.19
2018-08-17T12:03:32.228Z,21.29
2018-08-17T12:05:37.133Z,20.98
2018-08-17T12:09:52.791Z,20.86
2018-08-17T12:11:57.704Z,20.72
2018-08-17T12:14:02.671Z,20.83
2018-08-17T12:16:11.127Z,20.79
2018-08-17T12:18:16.137Z,20.86
2018-08-17T12:20:21.362Z,20.95
2018-08-17T12:22:26.278Z,21.23
2018-08-17T12:24:32.111Z,20.97
2018-08-17T12:26:42.073Z,21.03
2018-08-17T12:28:47.466Z,21.26
2018-08-17T12:30:52.407Z,21.16
2018-08-17T12:32:57.172Z,21.10
2018-08-17T12:35:02.170Z,21.06
2018-08-17T12:37:07.210Z,20.88
2018-08-17T12:39:12.124Z,21.40
2018-08-17T12:41:16.882Z,21.65
2018-08-17T12:43:25.559Z,21.78
2018-08-17T12:45:30.383Z,21.86
2018-08-17T12:47:35.622Z,21.62
2018-08-17T12:49:40.813Z,21.29
2018-08-17T12:51:45.715Z,21.60
2018-08-17T12:53:50.515Z,21.89
2018-08-17T12:55:55.265Z,21.98
2018-08-17T12:58:00.100Z,22.28
2018-08-17T13:00:05.831Z,22.16
2018-08-17T13:02:10.708Z,21.89
2018-08-17T13:04:15.457Z,21.60
2018-08-17T13:06:20.272Z,21.77
2018-08-17T13:08:25.328Z,21.58
2018-08-17T13:10:30.785Z,21.82
2018-08-17T13:12:35.553Z,21.98
2018-08-17T13:14:40.509Z,22.07
2018-08-17T13:16:45.669Z,22.02
2018-08-17T13:18:52.134Z,21.75
2018-08-17T13:20:57.053Z,21.95
2018-08-17T13:23:01.872Z,22.05
2018-08-17T13:25:06.927Z,22.16
2018-08-17T13:27:12.544Z,22.44
2018-08-17T13:29:17.366Z,22.49
2018-08-17T13:31:22.277Z,22.67
2018-08-17T13:33:27.250Z,22.69
2018-08-17T13:35:32.470Z,22.93
2018-08-17T13:37:37.326Z,22.67
2018-08-17T13:39:42.290Z,22.61
2018-08-17T13:41:47.182Z,22.55
2018-08-17T13:43:52.651Z,22.44
2018-08-17T13:45:57.783Z,22.04
2018-08-17T13:48:02.768Z,22.27
2018-08-17T13:50:09.120Z,22.22
2018-08-17T13:52:14.125Z,22.21
2018-08-17T13:54:18.988Z,22.39
2018-08-17T13:56:23.772Z,22.23
2018-08-17T13:58:28.662Z,22.28
2018-08-17T14:00:33.504Z,22.24
2018-08-17T14:02:38.419Z,22.21
2018-08-17T14:04:43.541Z,22.28
2018-08-17T14:06:48.467Z,22.39
2018-08-17T14:08:53.302Z,22.66
2018-08-17T14:10:58.253Z,22.65
2018-08-17T14:13:03.076Z,22.42
2018-08-17T14:15:09.849Z,22.60
2018-08-17T14:17:14.891Z,22.56
2018-08-17T14:23:56.215Z,23.00
2018-08-17T14:26:04.347Z,23.02
2018-08-17T14:28:20.840Z,23.30
2018-08-17T14:30:26.234Z,22.90
2018-08-17T14:32:34.406Z,23.09
2018-08-17T14:34:39.846Z,22.94
2018-08-17T14:36:44.857Z,23.09
2018-08-17T14:38:50.010Z,23.07
2018-08-17T14:40:54.863Z,23.13
2018-08-17T14:43:03.285Z,23.25
2018-08-17T14:45:09.084Z,23.30
2018-08-17T14:47:13.878Z,22.67
2018-08-17T14:49:18.770Z,22.70
2018-08-17T14:51:23.659Z,22.84
2018-08-17T14:53:28.793Z,23.23
2018-08-17T14:55:33.673Z,23.19
2018-08-17T14:57:38.643Z,22.47
2018-08-17T14:59:43.445Z,22.99
2018-08-17T15:01:48.581Z,23.04
2018-08-17T15:03:53.490Z,22.72
2018-08-17T15:06:00.823Z,22.77
2018-08-17T15:08:05.846Z,22.81
2018-08-17T15:10:12.892Z,22.96
2018-08-17T15:12:17.694Z,23.02
2018-08-17T15:14:22.913Z,22.95
2018-08-17T15:16:27.740Z,23.07
2018-08-17T15:18:32.462Z,23.13
2018-08-17T15:20:37.279Z,23.35
2018-08-17T15:22:42.402Z,23.45
2018-08-17T15:24:47.182Z,23.45
2018-08-17T15:26:52.148Z,23.25
2018-08-17T15:28:56.932Z,23.25
2018-08-17T15:31:01.683Z,23.18
2018-08-17T15:33:06.885Z,23.39
2018-08-17T15:35:11.999Z,23.59
2018-08-17T15:37:17.558Z,23.67
2018-08-17T15:39:22.680Z,23.80
2018-08-17T15:41:27.549Z,23.44
2018-08-17T15:43:32.873Z,23.45
2018-08-17T15:45:37.961Z,23.72
2018-08-17T15:47:42.917Z,23.83
2018-08-17T15:50:09.362Z,24.06
2018-08-17T15:52:14.252Z,24.02
2018-08-17T15:54:19.139Z,24.37
2018-08-17T15:56:24.065Z,24.68
2018-08-17T15:58:30.352Z,25.11
2018-08-17T16:00:35.929Z,25.67
2018-08-17T16:02:40.832Z,26.13
2018-08-17T16:04:45.619Z,26.55
2018-08-17T16:06:50.443Z,25.73
2018-08-17T16:08:55.191Z,25.45
2018-08-17T16:10:59.943Z,24.68
2018-08-17T16:13:04.970Z,24.12
2018-08-17T16:15:10.620Z,23.46
2018-08-17T16:17:15.678Z,23.29
2018-08-17T16:19:20.711Z,23.60
2018-08-17T16:21:25.779Z,23.50
2018-08-17T16:23:30.742Z,23.63
2018-08-17T16:25:35.720Z,24.17
2018-08-17T16:27:41.287Z,24.02
2018-08-17T16:29:46.433Z,24.00
2018-08-17T16:31:51.599Z,23.61
2018-08-17T16:33:56.468Z,23.29
2018-08-17T16:36:01.480Z,23.20
2018-08-17T16:38:07.016Z,23.37
2018-08-17T16:40:12.218Z,23.43
2018-08-17T16:42:25.576Z,23.35
2018-08-17T16:44:30.636Z,23.16
2018-08-17T16:46:36.273Z,23.30
2018-08-17T16:48:41.894Z,22.84
2018-08-17T16:50:47.063Z,23.12
2018-08-17T16:52:52.025Z,23.08
2018-08-17T16:54:56.941Z,22.87
2018-08-17T16:57:01.900Z,23.05
2018-08-17T16:59:07.262Z,23.03
2018-08-17T17:01:12.128Z,22.97
2018-08-17T17:03:28.960Z,23.23
2018-08-17T17:05:33.799Z,23.48
2018-08-17T17:07:38.573Z,23.40
2018-08-17T17:09:43.446Z,23.60
2018-08-17T17:11:48.424Z,23.75
2018-08-17T17:13:53.328Z,23.95
2018-08-17T17:15:58.134Z,23.87
2018-08-17T17:18:09.285Z,23.93
2018-08-17T17:20:14.233Z,24.17
2018-08-17T17:22:19.749Z,24.10
2018-08-17T17:24:25.483Z,23.88
2018-08-17T17:26:34.198Z,23.73
2018-08-17T17:28:39.150Z,23.99
2018-08-17T17:30:50.759Z,23.69
2018-08-17T17:32:55.752Z,23.53
2018-08-17T17:35:00.632Z,23.19
2018-08-17T17:37:07.517Z,22.97
2018-08-17T17:39:14.105Z,22.98
2018-08-17T17:41:24.858Z,22.93
2018-08-17T17:43:30.226Z,22.98
2018-08-17T17:45:35.470Z,22.96
2018-08-17T17:47:43.137Z,23.14
2018-08-17T17:49:48.512Z,22.87
2018-08-17T17:51:53.598Z,22.81
2018-08-17T17:53:58.523Z,22.60
2018-08-17T17:56:03.610Z,22.61
2018-08-17T17:58:10.179Z,22.50
2018-08-17T18:00:15.048Z,22.52
2018-08-17T18:02:20.127Z,22.46
2018-08-17T18:04:25.191Z,22.60
2018-08-17T18:06:30.187Z,22.56
2018-08-17T18:08:35.626Z,22.29
2018-08-17T18:10:40.804Z,22.34
2018-08-17T18:12:45.739Z,22.36
2018-08-17T18:14:51.657Z,22.16
2018-08-17T18:16:56.839Z,22.11
2018-08-17T18:19:01.967Z,22.13
2018-08-17T18:21:07.153Z,21.97
2018-08-17T18:23:12.186Z,22.01
2018-08-17T18:25:17.785Z,21.96
2018-08-17T18:27:22.828Z,21.86
2018-08-17T18:29:27.894Z,21.86
2018-08-17T18:31:32.971Z,21.94
2018-08-17T18:33:38.334Z,21.87
2018-08-17T18:42:14.744Z,21.76
2018-08-17T18:44:21.266Z,21.76
2018-08-17T18:46:26.600Z,21.62
2018-08-17T18:48:31.584Z,21.55
2018-08-17T18:50:36.477Z,21.72
2018-08-17T18:52:41.663Z,21.49
2018-08-17T18:54:46.915Z,21.38
2018-08-17T18:56:51.806Z,21.29
2018-08-17T18:58:56.918Z,21.22
2018-08-17T19:01:01.952Z,21.13
2018-08-17T19:03:07.630Z,21.06
2018-08-17T19:05:13.213Z,20.99
2018-08-17T19:07:18.133Z,21.22
2018-08-17T19:09:23.566Z,21.16
2018-08-17T19:11:29.579Z,20.96
2018-08-17T19:13:34.874Z,20.85
2018-08-17T19:15:45.480Z,20.82
2018-08-17T19:17:51.206Z,20.73
2018-08-17T19:19:58.187Z,20.70
2018-08-17T19:22:03.256Z,20.65
2018-08-17T19:24:12.523Z,20.67
2018-08-17T19:26:18.015Z,20.61
2018-08-17T19:28:23.018Z,20.86
2018-08-17T19:30:34.285Z,20.71
2018-08-17T19:32:44.618Z,20.88
2018-08-17T19:34:56.325Z,20.82
2018-08-17T19:37:04.001Z,20.62
2018-08-17T19:41:35.561Z,20.81
2018-08-17T19:43:45.777Z,20.66
2018-08-17T19:45:55.298Z,20.66
2018-08-17T19:48:05.508Z,20.55
2018-08-17T19:50:14.587Z,20.71
2018-08-17T19:52:21.675Z,20.57
2018-08-17T19:54:29.902Z,20.56
2018-08-17T19:56:36.344Z,20.46
2018-08-17T19:58:44.346Z,20.35
2018-08-17T20:00:51.838Z,20.28
2018-08-17T20:02:59.167Z,20.49
2018-08-17T20:05:06.016Z,20.20
2018-08-17T20:07:12.123Z,20.28
2018-08-17T20:09:17.635Z,20.11
2018-08-17T20:11:24.682Z,20.08
2018-08-17T20:13:30.162Z,19.92
2018-08-17T20:15:39.286Z,19.90
2018-08-17T20:17:54.140Z,20.03
2018-08-17T20:20:00.994Z,19.88
2018-08-17T20:22:13.091Z,19.91
2018-08-17T20:24:18.290Z,19.85
2018-08-17T20:26:24.962Z,19.74
2018-08-17T20:28:33.984Z,19.93
2018-08-17T20:30:43.030Z,19.94
2018-08-17T20:32:52.897Z,19.74
2018-08-17T20:35:03.546Z,19.90
2018-08-17T20:37:09.682Z,19.99
2018-08-17T20:39:16.490Z,19.76
2018-08-17T20:41:24.970Z,19.68
2018-08-17T20:43:34.175Z,19.86
2018-08-17T20:45:42.432Z,19.76
2018-08-17T20:47:49.323Z,19.84
2018-08-17T20:49:57.481Z,19.73
2018-08-17T20:52:04.741Z,19.67
2018-08-17T20:54:11.126Z,19.84
2018-08-17T20:56:17.650Z,19.76
2018-08-17T20:58:24.415Z,19.67
2018-08-17T21:00:30.609Z,19.45
2018-08-17T21:02:35.749Z,19.33
2018-08-17T21:04:41.662Z,19.26
2018-08-17T21:06:47.486Z,19.18
2018-08-17T21:08:52.683Z,19.28
2018-08-17T21:10:58.160Z,19.23
2018-08-17T21:13:03.311Z,19.03
2018-08-17T21:15:11.313Z,19.13
2018-08-17T21:17:19.304Z,18.98
2018-08-17T21:19:31.428Z,19.08
2018-08-17T21:21:37.547Z,19.08
2018-08-17T21:23:42.609Z,19.08
2018-08-17T21:25:50.627Z,19.39
2018-08-17T21:27:55.709Z,19.23
2018-08-17T21:30:01.396Z,19.03
2018-08-17T21:32:06.439Z,19.17
2018-08-17T21:34:11.657Z,18.98
2018-08-17T21:36:16.849Z,18.93
2018-08-17T21:38:22.000Z,18.88
2018-08-17T21:40:29.880Z,18.85
2018-08-17T21:42:38.041Z,18.96
2018-08-17T21:44:43.603Z,19.08
2018-08-17T21:47:09.507Z,19.02
2018-08-17T21:49:14.528Z,19.09
2018-08-17T21:51:19.958Z,18.97
2018-08-17T21:53:25.828Z,18.99
2018-08-17T21:55:35.717Z,18.94
2018-08-17T21:57:45.174Z,18.95
2018-08-17T21:59:52.115Z,18.94
2018-08-17T22:01:59.417Z,18.97
2018-08-17T22:04:05.840Z,18.95
2018-08-17T22:06:10.933Z,18.90
2018-08-17T22:08:15.855Z,18.89
2018-08-17T22:10:20.819Z,18.84
2018-08-17T22:12:26.055Z,18.73
2018-08-17T22:14:31.037Z,18.76
2018-08-17T22:16:36.334Z,18.71
2018-08-17T22:18:41.365Z,18.67
2018-08-17T22:20:46.573Z,18.66
2018-08-17T22:22:51.622Z,18.47
2018-08-17T22:24:58.024Z,18.63
2018-08-17T22:27:03.309Z,18.55
2018-08-17T22:29:08.208Z,18.60
2018-08-17T22:31:13.201Z,18.42
2018-08-17T22:33:18.105Z,18.46
2018-08-17T22:35:23.249Z,18.46
2018-08-17T22:37:28.123Z,18.40
2018-08-17T22:39:33.098Z,18.35
2018-08-17T22:41:38.128Z,18.26
2018-08-17T22:43:43.073Z,18.24
2018-08-17T22:45:49.189Z,18.30
2018-08-17T22:47:54.716Z,18.28
2018-08-17T22:50:01.217Z,18.19
2018-08-17T22:52:06.639Z,18.43
2018-08-17T22:54:11.829Z,18.57
2018-08-17T22:56:17.041Z,18.17
2018-08-17T22:58:22.042Z,18.11
2018-08-17T23:00:29.251Z,18.15
2018-08-17T23:02:34.383Z,18.19
2018-08-17T23:04:39.583Z,18.09
2018-08-17T23:06:44.826Z,18.10
2018-08-17T23:08:50.552Z,17.95
2018-08-17T23:10:55.620Z,18.24
2018-08-17T23:13:00.583Z,18.06
2018-08-17T23:15:07.505Z,18.00
2018-08-17T23:17:12.670Z,17.94
2018-08-17T23:19:17.617Z,17.89
2018-08-17T23:21:22.577Z,17.80
2018-08-17T23:23:27.588Z,17.82
2018-08-17T23:25:32.857Z,17.87
2018-08-17T23:27:37.894Z,17.66
2018-08-17T23:29:43.358Z,17.57
2018-08-17T23:31:48.285Z,17.54
2018-08-17T23:33:53.652Z,17.45
2018-08-17T23:35:58.800Z,17.48
2018-08-17T23:38:03.838Z,17.40
2018-08-17T23:40:09.809Z,17.46
2018-08-17T23:42:14.950Z,17.35
2018-08-17T23:44:20.070Z,17.34
2018-08-17T23:46:25.194Z,17.39
2018-08-17T23:48:30.349Z,17.24
2018-08-17T23:50:35.661Z,17.21
2018-08-17T23:52:40.694Z,17.24
2018-08-17T23:54:45.950Z,17.34
2018-08-17T23:56:51.078Z,17.21
2018-08-17T23:58:56.319Z,17.12
